Time;durP1;ratioP1;P1;durP2;ratioP2;P2;SDS_P1;SDS_P2;PMS_P1;PMS_P2;Temp;Humidity;BMP_temperature;BMP_pressure;BME280_temperature;BME280_humidity;BME280_pressure;Samples;Min_cycle;Max_cycle;Signal;HPM_P1;HPM_P2
2023/03/06 00:02:23;;;;;;;20.95;11.60;;;;;;;-144.73;96.82;54436.44;4989955;28;20498;-76
2023/03/06 00:04:49;;;;;;;35.17;16.20;;;;;;;-144.73;96.65;54436.44;4975109;28;20030;-76
2023/03/06 00:07:14;;;;;;;30.10;16.45;;;;;;;-144.73;96.96;54440.53;4996100;28;20030;-76
2023/03/06 00:09:40;;;;;;;38.30;18.37;;;;;;;-144.73;97.10;54481.59;4967380;28;20066;-76
2023/03/06 00:12:06;;;;;;;30.57;16.13;;;;;;;-144.73;97.27;54473.38;4999477;28;20121;-76
2023/03/06 00:14:31;;;;;;;39.23;17.93;;;;;;;-144.73;97.14;54469.28;4989762;28;20026;-76
2023/03/06 00:16:56;;;;;;;35.50;19.10;;;;;;;-144.73;97.74;54454.91;4984827;28;20117;-76
2023/03/06 00:19:22;;;;;;;43.25;21.98;;;;;;;-144.73;97.79;54469.28;4991058;28;20482;-75
2023/03/06 00:21:48;;;;;;;43.77;21.87;;;;;;;-144.73;97.70;54485.69;4990939;28;20034;-76
2023/03/06 00:24:13;;;;;;;41.85;19.83;;;;;;;-144.73;97.50;54485.69;4991224;28;20077;-76
2023/03/06 00:26:40;;;;;;;30.45;16.05;;;;;;;-144.73;97.60;54481.59;4982942;28;20035;-76
2023/03/06 00:29:06;;;;;;;39.53;19.20;;;;;;;-144.73;97.78;54461.06;4985772;28;20027;-76
2023/03/06 00:31:32;;;;;;;47.07;21.60;;;;;;;-144.73;97.58;54461.06;4990791;28;20092;-76
2023/03/06 00:33:58;;;;;;;47.23;23.47;;;;;;;-144.73;98.60;54465.16;4991785;28;20121;-76
2023/03/06 00:36:23;;;;;;;40.43;20.67;;;;;;;-144.73;99.91;54444.66;4990725;28;20130;-76
2023/03/06 00:38:48;;;;;;;51.03;24.97;;;;;;;-144.73;99.60;54440.53;4991518;28;20030;-76
2023/03/06 00:41:14;;;;;;;43.93;22.87;;;;;;;-144.73;100.00;54477.47;4990511;28;20042;-76
2023/03/06 00:43:39;;;;;;;39.10;20.77;;;;;;;-144.73;100.00;54452.84;4990338;28;20026;-76
2023/03/06 00:46:05;;;;;;;36.97;19.87;;;;;;;-144.73;100.00;54473.38;4990387;28;20046;-74
2023/03/06 00:48:31;;;;;;;34.53;18.53;;;;;;;-144.73;100.00;54452.84;4982966;28;20019;-75
2023/03/06 00:50:57;;;;;;;32.30;16.43;;;;;;;-144.73;100.00;54473.38;4990617;28;20402;-75
2023/03/06 00:53:22;;;;;;;29.00;15.10;;;;;;;-144.73;100.00;54465.16;4994696;28;20380;-75
2023/03/06 00:55:49;;;;;;;26.40;12.23;;;;;;;-144.73;100.00;54475.44;4990432;28;20113;-74
2023/03/06 00:58:14;;;;;;;23.33;12.33;;;;;;;-144.73;99.85;54493.91;4990545;28;20026;-75
2023/03/06 01:00:40;;;;;;;21.90;11.93;;;;;;;-144.73;99.47;54485.69;4980382;28;20062;-76
2023/03/06 01:03:05;;;;;;;20.70;9.97;;;;;;;-144.73;99.93;54444.66;4984494;28;20022;-75
2023/03/06 01:05:34;;;;;;;21.13;10.97;;;;;;;-144.73;99.16;54522.63;4990656;28;20054;-75
2023/03/06 01:07:59;;;;;;;19.80;8.20;;;;;;;-144.73;98.68;54477.47;4991236;28;20037;-76
2023/03/06 01:10:26;;;;;;;19.10;9.40;;;;;;;-144.73;98.45;54436.44;4990373;28;20018;-77
2023/03/06 01:12:52;;;;;;;18.07;8.97;;;;;;;-144.73;99.22;54438.50;4992399;28;20474;-76
2023/03/06 01:15:17;;;;;;;22.37;9.23;;;;;;;-144.73;99.34;54440.53;4990603;28;20029;-77
2023/03/06 01:17:43;;;;;;;15.07;8.57;;;;;;;-144.73;98.95;54446.69;4988203;28;20129;-76
2023/03/06 01:20:13;;;;;;;18.43;8.60;;;;;;;-144.73;98.21;54428.22;4989716;28;20030;-76
2023/03/06 01:22:38;;;;;;;15.87;7.10;;;;;;;-144.73;98.45;54473.38;4988405;28;20034;-77
2023/03/06 01:25:04;;;;;;;18.13;7.03;;;;;;;-144.73;97.85;54465.16;4983626;28;20403;-77
2023/03/06 01:27:29;;;;;;;17.37;6.47;;;;;;;-144.73;97.61;54481.59;4993222;28;20117;-77
2023/03/06 01:29:54;;;;;;;12.53;5.03;;;;;;;-144.73;97.20;54477.47;4994027;28;20026;-76
2023/03/06 01:32:20;;;;;;;12.73;6.60;;;;;;;-144.73;97.57;54489.81;4993789;28;20411;-76
2023/03/06 01:34:46;;;;;;;20.23;6.50;;;;;;;-144.73;97.69;54489.81;4993785;28;20030;-76
2023/03/06 01:37:11;;;;;;;15.40;7.03;;;;;;;-144.73;97.30;54473.38;4993872;28;20030;-78
2023/03/06 01:39:37;;;;;;;12.97;5.97;;;;;;;-144.73;97.43;54502.13;4993869;28;20022;-77
2023/03/06 01:42:03;;;;;;;18.67;6.17;;;;;;;-144.73;96.98;54456.97;4993325;28;20038;-77
2023/03/06 01:44:28;;;;;;;16.37;6.17;;;;;;;-144.73;97.40;54463.13;4993607;28;20100;-77
2023/03/06 01:46:53;;;;;;;17.43;7.37;;;;;;;-144.73;97.75;54506.22;5010025;28;20122;-77
2023/03/06 01:49:36;;;;;;;19.03;7.07;;;;;;;-144.73;98.38;54446.69;4994062;28;20026;-77
2023/03/06 01:52:16;;;;;;;17.43;6.60;;;;;;;-144.73;98.18;54477.47;4998472;28;20396;-77
2023/03/06 01:54:49;;;;;;;16.80;7.63;;;;;;;-144.73;97.95;54473.38;4976000;28;20023;-77
2023/03/06 01:57:23;;;;;;;23.23;7.47;;;;;;;-144.73;98.23;54432.31;4992756;28;20046;-77
2023/03/06 01:59:53;;;;;;;14.13;6.20;;;;;;;-144.73;98.45;54489.81;4995257;28;20022;-78
2023/03/06 02:02:19;;;;;;;17.97;6.40;;;;;;;-144.73;97.68;54481.59;4993229;28;20034;-77
2023/03/06 02:04:46;;;;;;;19.60;6.60;;;;;;;-144.73;97.95;54452.84;4994830;28;20022;-77
2023/03/06 02:07:14;;;;;;;18.53;6.73;;;;;;;-144.73;98.17;54473.38;4992929;28;20037;-77
2023/03/06 02:09:40;;;;;;;25.83;7.73;;;;;;;-144.73;98.34;54477.47;5008250;28;20029;-77
2023/03/06 02:12:10;;;;;;;22.47;9.33;;;;;;;-144.73;98.92;54510.31;4988100;28;20394;-77
2023/03/06 02:14:36;;;;;;;14.13;7.33;;;;;;;-144.73;98.97;54469.28;4992833;28;20022;-77
2023/03/06 02:17:02;;;;;;;18.90;8.97;;;;;;;-144.73;98.67;54473.38;5009421;28;20034;-77
2023/03/06 02:19:44;;;;;;;20.53;7.60;;;;;;;-144.73;99.24;54469.28;4985225;28;20029;-77
2023/03/06 02:22:10;;;;;;;;;;;;;;;-144.73;98.77;54475.44;4993823;28;20104;-77
2023/03/06 02:24:56;;;;;;;25.43;10.03;;;;;;;-144.73;100.00;54448.75;4993917;28;20000;-77
2023/03/06 02:27:23;;;;;;;21.63;9.40;;;;;;;-144.73;100.00;54465.16;5001381;28;20039;-77
2023/03/06 02:29:49;;;;;;;25.63;10.20;;;;;;;-144.73;99.89;54465.16;4993221;28;20022;-77
2023/03/06 02:32:14;;;;;;;28.23;11.23;;;;;;;-144.73;100.00;54481.59;4992713;28;20038;-77
2023/03/06 02:34:48;;;;;;;27.00;11.63;;;;;;;-144.73;100.00;54450.81;4992851;28;20022;-77
2023/03/06 02:37:13;;;;;;;28.67;13.43;;;;;;;-144.73;100.00;54479.53;4992539;28;20051;-77
2023/03/06 02:39:43;;;;;;;29.73;13.47;;;;;;;-144.73;100.00;54452.84;4983211;28;20022;-76
2023/03/06 02:42:09;;;;;;;34.37;16.00;;;;;;;-144.73;100.00;54452.84;4984538;28;20027;-77
2023/03/06 02:44:35;;;;;;;40.20;16.00;;;;;;;-144.73;100.00;54477.47;5007933;28;20121;-77
2023/03/06 02:47:00;;;;;;;42.47;19.00;;;;;;;-144.73;100.00;54465.16;4985701;28;20030;-77
2023/03/06 02:49:26;;;;;;;35.07;15.87;;;;;;;-144.73;100.00;54452.84;4993082;28;20026;-77
2023/03/06 02:51:51;;;;;;;38.57;19.23;;;;;;;-144.73;100.00;54465.16;5008858;28;20045;-77
2023/03/06 02:54:17;;;;;;;48.37;21.50;;;;;;;-144.73;100.00;54461.06;4993202;28;20077;-77
2023/03/06 02:56:43;;;;;;;53.50;23.23;;;;;;;-144.73;100.00;54489.81;4990210;28;20034;-78
2023/03/06 02:59:09;;;;;;;61.10;25.00;;;;;;;-144.73;100.00;54442.59;4973566;28;20026;-77
2023/03/06 03:01:34;;;;;;;65.50;26.47;;;;;;;-144.73;100.00;54463.13;4981826;28;20372;-77
2023/03/06 03:04:00;;;;;;;60.07;24.47;;;;;;;-144.73;100.00;54514.44;4992419;28;20061;-77
2023/03/06 03:06:25;;;;;;;66.57;26.40;;;;;;;-144.73;100.00;54448.75;5004052;28;20037;-78
2023/03/06 03:08:51;;;;;;;56.57;25.83;;;;;;;-144.73;100.00;54506.22;4992552;28;20026;-78
2023/03/06 03:11:16;;;;;;;60.83;26.43;;;;;;;-144.73;100.00;54469.28;4992300;28;20041;-77
2023/03/06 03:13:41;;;;;;;53.90;23.53;;;;;;;-144.73;100.00;54461.06;4993757;28;20026;-77
2023/03/06 03:16:10;;;;;;;52.97;24.03;;;;;;;-144.73;100.00;54465.16;4992116;28;20494;-77
2023/03/06 03:18:35;;;;;;;58.10;26.77;;;;;;;-144.73;100.00;54479.53;4993844;28;20034;-77
2023/03/06 03:21:01;;;;;;;56.17;25.60;;;;;;;-144.73;100.00;54498.00;4992028;28;20129;-77
2023/03/06 03:23:26;;;;;;;56.47;27.57;;;;;;;-144.73;100.00;54424.13;4984179;28;20089;-77
2023/03/06 03:25:52;;;;;;;64.33;27.03;;;;;;;-144.73;100.00;54452.84;4991503;28;20101;-77
2023/03/06 03:28:18;;;;;;;62.43;29.37;;;;;;;-144.73;100.00;54424.13;4992181;28;20026;-76
2023/03/06 03:30:43;;;;;;;54.43;26.17;;;;;;;-144.73;100.00;54465.16;4983610;28;20094;-77
2023/03/06 03:33:10;;;;;;;47.60;22.67;;;;;;;-144.73;100.00;54477.47;4992379;28;20051;-77
2023/03/06 03:35:35;;;;;;;51.87;23.93;;;;;;;-144.73;100.00;54477.47;4991657;28;20027;-77
2023/03/06 03:38:00;;;;;;;52.80;23.33;;;;;;;-144.73;100.00;54448.75;4988436;28;20033;-77
2023/03/06 03:40:26;;;;;;;41.90;20.83;;;;;;;-144.73;100.00;54475.44;4988461;28;20034;-77
2023/03/06 03:42:51;;;;;;;48.70;23.20;;;;;;;-144.73;100.00;54487.75;4993676;28;20038;-77
2023/03/06 03:45:17;;;;;;;46.70;23.47;;;;;;;-144.73;100.00;54479.53;4992021;28;20077;-77
2023/03/06 03:47:42;;;;;;;46.83;22.80;;;;;;;-144.73;100.00;54452.84;4989227;28;20034;-77
2023/03/06 03:50:10;;;;;;;43.30;21.00;;;;;;;-144.73;100.00;54473.38;4993260;28;20026;-78
2023/03/06 03:52:36;;;;;;;41.50;19.17;;;;;;;-144.73;99.93;54485.69;4982717;28;20042;-77
2023/03/06 03:55:02;;;;;;;42.33;19.47;;;;;;;-144.73;100.00;54495.97;4992396;28;20030;-77
2023/03/06 03:57:27;;;;;;;42.70;19.70;;;;;;;-144.73;100.00;54489.81;4992144;28;20038;-77
2023/03/06 03:59:52;;;;;;;36.57;18.17;;;;;;;-144.73;100.00;54444.66;4984659;28;20037;-77
2023/03/06 04:02:20;;;;;;;45.13;19.50;;;;;;;-144.73;100.00;54469.28;4992381;28;20045;-77
2023/03/06 04:04:46;;;;;;;37.87;17.40;;;;;;;-144.73;100.00;54467.22;4991763;28;20049;-77
2023/03/06 04:07:12;;;;;;;42.70;18.13;;;;;;;-144.73;99.76;54465.16;4991476;28;20105;-77
2023/03/06 04:09:37;;;;;;;34.60;16.93;;;;;;;-144.73;99.48;54469.28;4991459;28;20169;-77
2023/03/06 04:12:03;;;;;;;40.07;16.87;;;;;;;-144.73;99.55;54465.16;4991562;28;20129;-77
2023/03/06 04:14:28;;;;;;;35.10;16.93;;;;;;;-144.73;98.53;54426.16;5007397;28;20026;-78
2023/03/06 04:16:53;;;;;;;32.57;16.00;;;;;;;-144.73;98.00;54456.97;4974320;28;20039;-77
2023/03/06 04:19:19;;;;;;;34.07;16.00;;;;;;;-144.73;97.24;54475.44;4991325;28;20026;-77
2023/03/06 04:21:44;;;;;;;27.17;14.37;;;;;;;-144.73;96.64;54481.59;4989485;28;20034;-77
2023/03/06 04:24:09;;;;;;;29.97;14.20;;;;;;;-144.73;96.56;54465.16;4986007;28;20018;-77
2023/03/06 04:26:35;;;;;;;29.13;14.00;;;;;;;-144.73;97.24;54465.16;4990549;28;20483;-77
2023/03/06 04:29:01;;;;;;;35.93;15.37;;;;;;;-144.73;98.05;54477.47;4977937;28;20030;-77
2023/03/06 04:31:26;;;;;;;34.90;14.57;;;;;;;-144.73;98.25;54493.91;4991231;28;20046;-77
2023/03/06 04:33:52;;;;;;;28.67;12.73;;;;;;;-144.73;96.89;54465.16;4990809;28;20027;-77
2023/03/06 04:36:32;;;;;;;32.07;13.13;;;;;;;-144.73;96.58;54469.28;4994740;28;20038;-77
2023/03/06 04:38:58;;;;;;;31.13;12.73;;;;;;;-144.73;96.66;54444.66;4985894;28;20030;-77
2023/03/06 04:41:23;;;;;;;28.20;11.67;;;;;;;-144.73;96.45;54436.44;4989751;28;20058;-77
2023/03/06 04:43:49;;;;;;;27.63;11.50;;;;;;;-144.73;95.54;54467.22;5007205;28;20117;-77
2023/03/06 04:46:15;;;;;;;23.83;11.00;;;;;;;-144.73;95.83;54481.59;4990463;28;20499;-76
2023/03/06 04:48:41;;;;;;;26.53;10.90;;;;;;;-144.73;95.57;54477.47;4989949;28;20038;-76
2023/03/06 04:51:06;;;;;;;29.57;12.20;;;;;;;-144.73;96.51;54469.28;4990257;28;20042;-76
2023/03/06 04:53:31;;;;;;;23.00;10.67;;;;;;;-144.73;95.93;54461.06;4993408;28;20022;-76
2023/03/06 04:55:57;;;;;;;37.30;11.53;;;;;;;-144.73;96.83;54473.38;4990653;28;20101;-76
2023/03/06 04:58:23;;;;;;;28.03;10.90;;;;;;;-144.73;97.36;54481.59;5007009;28;20030;-76
2023/03/06 05:00:48;;;;;;;26.50;12.03;;;;;;;-144.73;97.59;54452.84;4986748;28;20078;-76
2023/03/06 05:03:14;;;;;;;29.43;11.17;;;;;;;-144.73;97.53;54444.66;4984717;28;20041;-76
2023/03/06 05:05:40;;;;;;;29.43;11.27;;;;;;;-144.73;97.73;54481.59;4990572;28;20038;-76
2023/03/06 05:08:05;;;;;;;34.93;11.53;;;;;;;-144.73;98.61;54465.16;4991635;28;20030;-76
2023/03/06 05:10:30;;;;;;;30.80;11.33;;;;;;;-144.73;98.36;54481.59;4989597;28;20030;-75
2023/03/06 05:12:56;;;;;;;30.30;11.73;;;;;;;-144.73;97.64;54440.53;4990401;28;20054;-75
2023/03/06 05:15:21;;;;;;;28.50;11.03;;;;;;;-144.73;96.89;54498.00;4990558;28;20124;-75
2023/03/06 05:17:47;;;;;;;29.37;11.27;;;;;;;-144.73;97.44;54485.69;5004487;23;20081;-75
2023/03/06 05:20:13;;;;;;;32.20;12.03;;;;;;;-144.73;97.36;54473.38;4988477;28;20053;-75
2023/03/06 05:22:40;;;;;;;24.67;8.70;;;;;;;-144.73;97.35;54456.97;5008690;28;20065;-75
2023/03/06 05:25:09;;;;;;;20.17;8.47;;;;;;;-144.73;96.99;54481.59;5000751;28;20022;-74
2023/03/06 05:27:36;;;;;;;19.63;8.80;;;;;;;-144.73;96.93;54465.16;4992769;28;20033;-74
2023/03/06 05:30:01;;;;;;;28.13;9.80;;;;;;;-144.73;96.60;54456.97;4987967;28;20477;-74
2023/03/06 05:32:27;;;;;;;24.63;7.77;;;;;;;-144.73;96.17;54493.91;5001465;28;20048;-74
2023/03/06 05:34:53;;;;;;;26.20;7.53;;;;;;;-144.73;95.90;54510.31;4985744;28;20042;-75
2023/03/06 05:37:24;;;;;;;14.97;6.10;;;;;;;-144.73;95.64;54469.28;4985405;28;20049;-75
2023/03/06 05:39:49;;;;;;;16.83;5.78;;;;;;;-144.73;95.85;54481.59;5011232;28;20026;-74
2023/03/06 05:42:21;;;;;;;19.80;7.47;;;;;;;-144.73;96.29;54485.69;4995013;28;20117;-75
2023/03/06 05:44:46;;;;;;;16.48;6.35;;;;;;;-144.73;96.50;54465.16;4993539;28;20116;-73
2023/03/06 05:47:13;;;;;;;14.23;6.23;;;;;;;-144.73;96.20;54456.97;5011188;28;20026;-74
2023/03/06 05:49:39;;;;;;;18.63;5.67;;;;;;;-144.73;96.51;54452.84;5010051;28;20049;-74
2023/03/06 05:52:05;;;;;;;21.07;6.17;;;;;;;-144.73;97.09;54485.69;5001201;28;20034;-73
2023/03/06 05:54:33;;;;;;;18.00;6.37;;;;;;;-144.73;97.62;54446.69;4993319;28;20030;-73
2023/03/06 05:56:58;;;;;;;15.23;6.00;;;;;;;-144.73;97.59;54481.59;4993235;28;20119;-73
2023/03/06 05:59:27;;;;;;;21.17;7.10;;;;;;;-144.73;98.28;54481.59;4989747;28;20045;-73
2023/03/06 06:01:56;;;;;;;21.07;8.10;;;;;;;-144.73;99.48;54510.31;4993296;28;20144;-73
2023/03/06 06:04:23;;;;;;;22.73;10.20;;;;;;;-144.73;100.00;54415.91;4986099;28;20118;-72
2023/03/06 06:06:57;;;;;;;25.13;11.57;;;;;;;-144.73;100.00;54461.06;4973708;28;20648;-73
2023/03/06 06:09:23;;;;;;;34.97;14.17;;;;;;;-144.73;100.00;54477.47;4993001;28;20030;-73
2023/03/06 06:11:54;;;;;;;40.47;17.53;;;;;;;-144.73;100.00;54465.16;4993735;28;20049;-73
2023/03/06 06:14:20;;;;;;;43.43;18.57;;;;;;;-144.73;100.00;54481.59;5008936;28;20054;-73
2023/03/06 06:16:45;;;;;;;42.83;18.43;;;;;;;-144.73;100.00;54485.69;5022311;28;20068;-73
2023/03/06 06:19:17;;;;;;;38.37;15.83;;;;;;;-144.73;100.00;54506.22;4988825;28;20038;-73
2023/03/06 06:21:44;;;;;;;35.00;16.25;;;;;;;-144.73;100.00;54463.13;5011280;28;20061;-74
2023/03/06 06:24:09;;;;;;;39.33;16.83;;;;;;;-144.73;100.00;54465.16;5012970;28;20029;-73
2023/03/06 06:26:35;;;;;;;45.13;19.67;;;;;;;-144.73;100.00;54444.66;5002032;28;20038;-73
2023/03/06 06:29:03;;;;;;;54.00;19.93;;;;;;;-144.73;100.00;54459.00;5012261;28;20033;-73
2023/03/06 06:31:28;;;;;;;37.17;16.83;;;;;;;-144.73;100.00;54448.75;4980041;28;20031;-72
2023/03/06 06:33:53;;;;;;;47.70;17.47;;;;;;;-144.73;100.00;54473.38;4976878;28;20026;-73
2023/03/06 06:36:20;;;;;;;38.93;17.33;;;;;;;-144.73;100.00;54463.13;4984707;28;20045;-73
2023/03/06 06:38:45;;;;;;;48.30;19.07;;;;;;;-144.73;100.00;54473.38;4995275;28;20105;-73
2023/03/06 06:41:11;;;;;;;55.03;22.27;;;;;;;-144.73;100.00;54465.16;5012667;28;20153;-73
2023/03/06 06:43:36;;;;;;;56.43;22.67;;;;;;;-144.73;100.00;54452.84;5012678;28;20029;-73
2023/03/06 06:46:01;;;;;;;49.13;19.53;;;;;;;-144.73;100.00;54479.53;5012154;28;20034;-73
2023/03/06 06:48:27;;;;;;;54.77;21.53;;;;;;;-144.73;100.00;54465.16;5004880;28;20030;-73
2023/03/06 06:50:57;;;;;;;46.73;19.53;;;;;;;-144.73;100.00;54461.06;4988023;28;20037;-73
2023/03/06 06:53:23;;;;;;;51.57;21.03;;;;;;;-144.73;100.00;54461.06;5002124;28;20064;-73
2023/03/06 06:55:48;;;;;;;43.57;18.93;;;;;;;-144.73;100.00;54485.69;5011717;28;20030;-76
2023/03/06 06:58:14;;;;;;;42.40;18.00;;;;;;;-144.73;100.00;54456.97;5001353;28;20033;-73
2023/03/06 07:00:39;;;;;;;34.60;17.53;;;;;;;-144.73;100.00;54498.00;5001425;28;20091;-73
2023/03/06 07:03:05;;;;;;;42.33;18.63;;;;;;;-144.73;100.00;54436.44;4995975;28;20022;-73
2023/03/06 07:05:30;;;;;;;39.13;18.70;;;;;;;-144.73;100.00;54440.53;4994977;28;20025;-73
2023/03/06 07:07:56;;;;;;;39.07;17.43;;;;;;;-144.73;100.00;54424.13;5000969;28;20029;-73
2023/03/06 07:10:21;;;;;;;40.70;18.93;;;;;;;-144.73;100.00;54506.22;4990581;28;20041;-73
2023/03/06 07:12:47;;;;;;;37.73;18.70;;;;;;;-144.73;100.00;54481.59;4993768;28;20030;-73
2023/03/06 07:15:18;;;;;;;35.50;16.93;;;;;;;-144.73;100.00;54477.47;5008761;28;20041;-74
2023/03/06 07:17:47;;;;;;;41.70;17.50;;;;;;;-144.73;100.00;54456.97;4982249;28;20039;-73
2023/03/06 07:20:12;;;;;;;28.30;14.80;;;;;;;-144.73;100.00;54481.59;4994955;28;20026;-73
2023/03/06 07:22:38;;;;;;;38.90;17.40;;;;;;;-144.73;100.00;54459.00;4992169;28;20038;-74
2023/03/06 07:25:05;;;;;;;39.63;19.20;;;;;;;-144.73;100.00;54463.13;4987202;28;20014;-74
2023/03/06 07:27:30;;;;;;;36.00;18.07;;;;;;;-144.73;100.00;54452.84;5006768;28;20030;-74
2023/03/06 07:29:56;;;;;;;31.10;15.93;;;;;;;-144.73;100.00;54485.69;5009347;28;20029;-73
2023/03/06 07:32:21;;;;;;;30.53;15.63;;;;;;;-144.73;100.00;54498.00;4981133;28;20112;-71
2023/03/06 07:34:47;;;;;;;39.03;17.03;;;;;;;-144.73;100.00;54489.81;4992960;28;20426;-72
2023/03/06 07:37:12;;;;;;;41.97;17.73;;;;;;;-144.73;100.00;54448.75;5004538;28;20096;-71
2023/03/06 07:39:37;;;;;;;42.03;17.23;;;;;;;-144.73;100.00;54477.47;4995340;28;20036;-71
2023/03/06 07:42:03;;;;;;;40.47;16.93;;;;;;;-144.73;100.00;54485.69;4999964;28;20041;-71
2023/03/06 07:44:28;;;;;;;47.63;17.50;;;;;;;-144.73;100.00;54440.53;4981915;28;20022;-71
2023/03/06 07:46:54;;;;;;;28.97;14.23;;;;;;;-144.73;100.00;54481.59;4982051;28;20121;-71
2023/03/06 07:49:19;;;;;;;30.63;14.60;;;;;;;-144.73;100.00;54493.91;5005608;28;20025;-71
2023/03/06 07:51:45;;;;;;;37.50;15.17;;;;;;;-144.73;100.00;54481.59;5007759;28;20033;-71
2023/03/06 07:54:10;;;;;;;34.93;13.33;;;;;;;-144.73;100.00;54465.16;4992043;28;20463;-70
2023/03/06 07:56:36;;;;;;;31.37;14.50;;;;;;;-144.73;100.00;54461.06;4987938;28;20038;-72
2023/03/06 07:59:01;;;;;;;33.40;15.37;;;;;;;-144.73;100.00;54456.97;4994366;28;20065;-72
2023/03/06 08:01:27;;;;;;;34.17;15.63;;;;;;;-144.73;100.00;54495.97;4979718;28;20038;-73
2023/03/06 08:03:52;;;;;;;36.37;16.30;;;;;;;-144.73;100.00;54481.59;5003621;28;20026;-72
2023/03/06 08:06:21;;;;;;;34.37;16.70;;;;;;;-144.73;100.00;54502.13;4993034;28;20044;-73
2023/03/06 08:08:49;;;;;;;44.13;19.73;;;;;;;-144.73;100.00;54479.53;4990541;28;20018;-72
2023/03/06 08:11:16;;;;;;;39.80;18.47;;;;;;;-144.73;100.00;54489.81;5004896;28;20041;-72
2023/03/06 08:13:45;;;;;;;42.10;20.33;;;;;;;-144.73;100.00;54469.28;4985136;28;20032;-72
2023/03/06 08:16:11;;;;;;;42.20;20.97;;;;;;;-144.73;100.00;54456.97;4987015;28;20034;-72
2023/03/06 08:18:38;;;;;;;51.63;24.17;;;;;;;-144.73;100.00;54481.59;4996443;28;20044;-69
2023/03/06 08:21:11;;;;;;;46.90;20.93;;;;;;;-144.73;100.00;54448.75;4987122;28;20048;-71
2023/03/06 08:23:37;;;;;;;48.17;21.13;;;;;;;-144.73;100.00;54493.91;4980684;28;20041;-72
2023/03/06 08:26:06;;;;;;;47.97;20.17;;;;;;;-144.73;100.00;54465.16;4984989;28;20056;-71
2023/03/06 08:28:34;;;;;;;51.47;22.83;;;;;;;-144.73;100.00;54508.28;5000209;28;20041;-71
2023/03/06 08:31:08;;;;;;;48.60;22.13;;;;;;;-144.73;100.00;54481.59;5000258;28;20037;-70
2023/03/06 08:33:37;;;;;;;53.60;23.07;;;;;;;-144.73;100.00;54481.59;5005596;28;20026;-70
2023/03/06 08:36:03;;;;;;;47.40;19.97;;;;;;;-144.73;100.00;54510.31;5002805;28;20034;-70
2023/03/06 08:38:28;;;;;;;44.60;19.50;;;;;;;-144.73;100.00;54461.06;4984187;28;20045;-70
2023/03/06 08:40:54;;;;;;;47.97;18.83;;;;;;;-144.73;99.23;54448.75;4990278;28;20041;-68
2023/03/06 08:43:19;;;;;;;45.17;18.33;;;;;;;-144.73;100.00;54489.81;4994889;28;20460;-71
2023/03/06 08:45:50;;;;;;;47.40;19.33;;;;;;;-144.73;100.00;54481.59;5003246;28;20017;-69
2023/03/06 08:48:15;;;;;;;37.35;19.13;;;;;;;-144.73;99.95;54465.16;4989248;28;20030;-69
2023/03/06 08:50:41;;;;;;;41.27;18.50;;;;;;;-144.73;99.89;54473.38;4987869;28;20034;-69
2023/03/06 08:53:06;;;;;;;45.67;18.87;;;;;;;-144.73;98.23;54493.91;4981380;28;20038;-71
2023/03/06 08:55:35;;;;;;;43.60;19.13;;;;;;;-144.73;99.33;54469.28;4987439;28;20043;-71
2023/03/06 08:58:01;;;;;;;38.13;18.63;;;;;;;-144.73;98.88;54452.84;4993324;28;20038;-69
2023/03/06 09:00:26;;;;;;;39.40;18.60;;;;;;;-144.73;98.66;54461.06;4991441;28;20084;-71
2023/03/06 09:02:52;;;;;;;37.63;19.80;;;;;;;-144.73;99.71;54469.28;4983958;28;20036;-69
2023/03/06 09:05:18;;;;;;;37.70;17.87;;;;;;;-144.73;99.71;54481.59;5002100;28;20024;-69
2023/03/06 09:07:43;;;;;;;34.27;17.47;;;;;;;-144.73;99.30;54481.59;4987103;28;20032;-69
2023/03/06 09:10:13;;;;;;;44.10;19.40;;;;;;;-144.73;98.44;54440.53;4981259;28;20296;-72
2023/03/06 09:12:41;;;;;;;41.40;17.97;;;;;;;-144.73;99.25;54469.28;4998592;28;20025;-71
2023/03/06 09:15:07;;;;;;;41.20;19.43;;;;;;;-144.73;98.25;54452.84;5003667;28;20018;-71
2023/03/06 09:17:32;;;;;;;36.97;16.40;;;;;;;-144.73;97.24;54493.91;4984575;28;20030;-71
2023/03/06 09:19:58;;;;;;;30.90;17.03;;;;;;;-144.73;97.07;54452.84;4987031;28;20046;-72
2023/03/06 09:22:23;;;;;;;30.15;15.38;;;;;;;-144.73;96.46;54481.59;4984676;28;20091;-71
2023/03/06 09:24:49;;;;;;;35.20;17.13;;;;;;;-144.73;96.76;54432.31;4996101;28;20077;-71
2023/03/06 09:27:14;;;;;;;35.00;17.63;;;;;;;-144.73;97.31;54481.59;5002668;28;20044;-71
2023/03/06 09:29:40;;;;;;;29.57;16.07;;;;;;;-144.73;97.36;54477.47;4999907;28;20034;-71
2023/03/06 09:32:06;;;;;;;25.57;15.27;;;;;;;-144.73;97.38;54477.47;4999630;28;20026;-71
2023/03/06 09:34:31;;;;;;;26.93;14.93;;;;;;;-144.73;96.72;54465.16;4999048;28;20034;-71
2023/03/06 09:36:56;;;;;;;29.03;15.90;;;;;;;-144.73;97.63;54477.47;5003577;28;20022;-71
2023/03/06 09:39:22;;;;;;;30.80;12.53;;;;;;;-144.73;96.46;54444.66;5002088;28;20026;-71
2023/03/06 09:41:48;;;;;;;21.33;12.57;;;;;;;-144.73;94.99;54461.06;5003877;28;20055;-71
2023/03/06 09:44:20;;;;;;;26.03;11.63;;;;;;;-144.73;94.96;54440.53;4985820;28;20037;-72
2023/03/06 09:47:05;;;;;;;19.88;10.43;;;;;;;-144.73;94.40;54440.53;5001873;28;20057;-70
2023/03/06 09:49:55;;;;;;;17.47;8.77;;;;;;;-144.73;93.18;54469.28;4999635;28;20038;-70
2023/03/06 09:52:36;;;;;;;17.47;8.70;;;;;;;-144.73;92.19;54448.75;4989798;28;20061;-70
2023/03/06 09:55:11;;;;;;;22.23;9.00;;;;;;;-144.73;93.55;54489.81;4987695;28;20042;-72
2023/03/06 09:57:57;;;;;;;23.47;9.20;;;;;;;-144.73;93.42;54479.53;4988588;28;20273;-72
2023/03/06 10:00:50;;;;;;;16.87;8.80;;;;;;;-144.73;91.28;54526.75;4988092;28;20037;-72
2023/03/06 10:03:26;;;;;;;20.13;10.88;;;;;;;-144.73;92.85;54440.53;4987089;28;20092;-72
2023/03/06 10:05:57;;;;;;;16.35;8.23;;;;;;;-144.73;92.93;54430.28;4996289;28;20051;-71
2023/03/06 10:08:29;;;;;;;;;;;;;;;-144.73;90.72;54448.75;4982806;28;20061;-71
2023/03/06 10:11:05;;;;;;;20.05;8.95;;;;;;;-144.73;90.42;54485.69;5004634;28;20446;-71
2023/03/06 10:13:37;;;;;;;18.60;9.80;;;;;;;-144.73;91.61;54489.81;4989272;28;20030;-71
2023/03/06 10:16:16;;;;;;;24.90;11.10;;;;;;;-144.73;93.10;54477.47;4989547;28;20266;-71
2023/03/06 10:18:41;;;;;;;22.67;10.65;;;;;;;-144.73;92.61;54481.59;5005170;28;20037;-71
2023/03/06 10:21:27;;;;;;;22.00;10.30;;;;;;;-144.73;90.56;54469.28;4987853;28;20037;-71
2023/03/06 10:24:09;;;;;;;28.83;12.18;;;;;;;-144.73;90.97;54461.06;4997483;28;20093;-71
2023/03/06 10:26:42;;;;;;;19.88;11.75;;;;;;;-144.73;91.67;54502.13;5007103;28;20026;-71
2023/03/06 10:29:31;;;;;;;17.55;10.57;;;;;;;-144.73;89.21;54498.00;4986077;28;20072;-70
2023/03/06 10:32:08;;;;;;;28.27;12.35;;;;;;;-144.73;89.54;54469.28;4988393;28;20394;-70
2023/03/06 10:34:38;;;;;;;19.67;12.05;;;;;;;-144.73;89.31;54514.44;5007423;28;20038;-72
2023/03/06 10:37:18;;;;;;;23.33;12.15;;;;;;;-144.73;86.43;54459.00;4980191;28;20023;-72
2023/03/06 10:39:44;;;;;;;21.80;12.20;;;;;;;-144.73;87.33;54485.69;4972815;28;20555;-73
2023/03/06 10:42:09;;;;;;;22.80;11.80;;;;;;;-144.73;89.01;54469.28;4986523;28;20113;-72
2023/03/06 10:44:35;;;;;;;23.58;11.05;;;;;;;-144.73;89.21;54461.06;5002154;28;20033;-72
2023/03/06 10:47:25;;;;;;;22.50;12.02;;;;;;;-144.73;89.28;54454.91;5005139;28;20075;-71
2023/03/06 10:50:00;;;;;;;24.73;11.43;;;;;;;-144.73;89.01;54477.47;4981516;28;20550;-71
2023/03/06 10:52:34;;;;;;;24.95;11.25;;;;;;;-144.73;88.08;54489.81;5007613;28;20014;-71
2023/03/06 10:55:25;;;;;;;21.10;12.30;;;;;;;-144.73;87.95;54475.44;5005979;28;20108;-70
2023/03/06 10:57:51;;;;;;;26.02;11.68;;;;;;;-144.73;88.66;54485.69;4989665;28;20026;-72
2023/03/06 11:00:30;;;;;;;24.40;9.85;;;;;;;-144.73;88.48;54465.16;5005089;28;20076;-71
2023/03/06 11:03:05;;;;;;;26.08;11.30;;;;;;;-144.73;87.38;54456.97;4988515;28;20098;-71